createdAt,value
2022-08-07T00:00:28.026Z,5.72
2022-08-07T00:03:09.407Z,6.15
2022-08-07T00:05:38.082Z,6.32
2022-08-07T00:08:07.816Z,6.03
2022-08-07T00:10:47.973Z,5.80
2022-08-07T00:13:25.750Z,6.18
2022-08-07T00:15:55.261Z,6.30
2022-08-07T00:18:28.526Z,6.47
2022-08-07T00:21:07.970Z,6.93
2022-08-07T00:23:40.174Z,6.95
2022-08-07T00:26:18.723Z,6.65
2022-08-07T00:28:59.378Z,6.57
2022-08-07T00:31:38.427Z,6.68
2022-08-07T00:34:09.942Z,6.68
2022-08-07T00:36:42.689Z,7.10
2022-08-07T00:39:16.486Z,7.25
2022-08-07T00:42:01.988Z,6.55
2022-08-07T00:44:38.354Z,7.53
2022-08-07T00:47:16.185Z,7.53
2022-08-07T00:50:19.653Z,7.67
2022-08-07T00:52:47.405Z,6.57
2022-08-07T00:55:17.381Z,7.78
2022-08-07T00:57:55.917Z,6.65
2022-08-07T01:00:24.913Z,6.65
2022-08-07T01:02:53.829Z,6.90
2022-08-07T01:07:52.716Z,7.28
2022-08-07T01:10:23.374Z,6.45
2022-08-07T01:12:54.717Z,7.35
2022-08-07T01:16:01.284Z,7.22
2022-08-07T01:18:17.088Z,6.30
2022-08-07T01:20:59.437Z,7.03
2022-08-07T01:23:36.853Z,6.68
2022-08-07T01:26:16.751Z,6.90
2022-08-07T01:28:50.553Z,7.15
2022-08-07T01:31:42.340Z,6.60
2022-08-07T01:34:14.340Z,6.93
2022-08-07T01:36:44.095Z,7.15
2022-08-07T01:39:18.455Z,6.35
2022-08-07T01:42:36.742Z,6.88
2022-08-07T01:44:43.037Z,6.25
2022-08-07T01:48:16.835Z,6.10
2022-08-07T01:55:04.708Z,5.65
2022-08-07T01:58:05.728Z,6.72
2022-08-07T02:00:32.031Z,6.32
2022-08-07T02:03:19.222Z,5.30
2022-08-07T02:06:02.559Z,5.40
2022-08-07T02:08:54.361Z,5.68
2022-08-07T02:11:31.011Z,6.00
2022-08-07T02:14:40.432Z,5.20
2022-08-07T02:17:06.069Z,5.07
2022-08-07T02:20:04.739Z,4.95
2022-08-07T02:22:26.200Z,5.45
2022-08-07T02:24:57.663Z,4.55
2022-08-07T02:27:30.152Z,3.97
2022-08-07T02:30:07.361Z,4.72
2022-08-07T02:32:38.699Z,4.00
2022-08-07T02:35:11.511Z,4.43
2022-08-07T02:37:51.249Z,4.32
2022-08-07T02:40:34.965Z,4.18
2022-08-07T02:43:07.802Z,4.22
2022-08-07T02:46:00.219Z,3.95
2022-08-07T02:48:32.313Z,3.55
2022-08-07T02:51:41.948Z,3.63
2022-08-07T02:54:09.330Z,2.88
2022-08-07T02:56:40.837Z,2.75
2022-08-07T02:59:14.964Z,2.60
2022-08-07T03:01:47.197Z,2.22
2022-08-07T03:04:23.181Z,1.95
2022-08-07T03:06:54.013Z,1.70
2022-08-07T03:09:44.697Z,1.48
2022-08-07T03:12:21.638Z,2.35
2022-08-07T03:17:22.173Z,1.95
2022-08-07T03:19:55.639Z,2.28
2022-08-07T03:22:30.399Z,2.00
2022-08-07T03:25:00.847Z,1.88
2022-08-07T03:27:59.745Z,1.85
2022-08-07T03:30:24.896Z,1.95
2022-08-07T03:32:58.655Z,2.03
2022-08-07T03:35:43.727Z,2.05
2022-08-07T03:38:21.048Z,2.38
2022-08-07T03:40:57.052Z,2.65
2022-08-07T03:43:32.414Z,2.88
2022-08-07T03:46:10.498Z,1.77
2022-08-07T03:49:03.005Z,2.13
2022-08-07T03:52:00.945Z,2.15
2022-08-07T03:54:35.445Z,2.42
2022-08-07T03:58:32.409Z,1.85
2022-08-07T04:00:11.525Z,2.03
2022-08-07T04:02:51.972Z,1.92
2022-08-07T04:05:40.901Z,1.85
2022-08-07T04:08:18.711Z,2.45
2022-08-07T04:10:54.832Z,1.70
2022-08-07T04:14:10.248Z,1.85
2022-08-07T04:16:31.473Z,2.40
2022-08-07T04:19:15.009Z,2.10
2022-08-07T04:22:05.373Z,1.80
2022-08-07T04:24:41.816Z,2.03
2022-08-07T04:27:15.224Z,1.48
2022-08-07T04:30:02.152Z,1.27
2022-08-07T04:33:09.409Z,1.45
2022-08-07T04:35:40.756Z,1.65
2022-08-07T04:38:15.631Z,1.70
2022-08-07T04:40:52.439Z,1.45
2022-08-07T04:44:09.965Z,1.90
2022-08-07T04:47:04.261Z,2.33
2022-08-07T04:49:57.902Z,1.73
2022-08-07T04:53:03.460Z,1.73
2022-08-07T04:58:16.756Z,1.55
2022-08-07T04:59:18.388Z,1.63
2022-08-07T05:02:16.819Z,1.45
2022-08-07T05:05:52.764Z,1.50
2022-08-07T05:08:59.349Z,2.13
2022-08-07T05:11:24.262Z,1.17
2022-08-07T05:14:53.407Z,1.60
2022-08-07T05:17:00.661Z,1.08
2022-08-07T05:19:44.273Z,1.13
2022-08-07T05:22:27.586Z,2.20
2022-08-07T05:25:00.661Z,1.90
2022-08-07T05:28:15.658Z,1.88
2022-08-07T05:30:32.448Z,1.40
2022-08-07T05:33:05.239Z,1.70
2022-08-07T05:35:41.823Z,1.38
2022-08-07T05:38:12.858Z,1.00
2022-08-07T05:41:02.802Z,1.83
2022-08-07T05:44:01.179Z,1.48
2022-08-07T05:46:30.714Z,2.17
2022-08-07T05:49:00.518Z,1.98
2022-08-07T05:51:46.522Z,1.63
2022-08-07T05:54:31.178Z,1.75
2022-08-07T05:57:08.238Z,1.77
2022-08-07T05:59:57.506Z,1.77
2022-08-07T06:02:33.091Z,2.35
2022-08-07T06:05:10.775Z,1.55
2022-08-07T06:08:29.144Z,2.00
2022-08-07T06:10:31.554Z,1.65
2022-08-07T06:13:02.228Z,1.77
2022-08-07T06:15:39.518Z,2.35
2022-08-07T06:18:15.889Z,2.10
2022-08-07T06:20:50.436Z,1.85
2022-08-07T06:24:36.931Z,1.67
2022-08-07T06:26:27.413Z,1.65
2022-08-07T06:29:01.450Z,2.70
2022-08-07T06:31:46.888Z,1.60
2022-08-07T06:34:20.594Z,2.13
2022-08-07T06:36:52.128Z,2.20
2022-08-07T06:40:18.023Z,2.40
2022-08-07T06:45:19.329Z,2.20
2022-08-07T06:47:58.838Z,2.20
2022-08-07T06:50:36.460Z,1.83
2022-08-07T06:54:11.757Z,2.42
2022-08-07T06:56:01.414Z,2.25
2022-08-07T06:58:36.486Z,1.88
2022-08-07T07:01:14.301Z,2.25
2022-08-07T07:03:49.879Z,1.90
2022-08-07T07:06:26.431Z,2.40
2022-08-07T07:08:56.844Z,2.10
2022-08-07T07:12:09.131Z,2.22
2022-08-07T07:14:16.496Z,2.67
2022-08-07T07:16:50.554Z,3.15
2022-08-07T07:19:57.358Z,1.90
2022-08-07T07:22:36.380Z,2.45
2022-08-07T07:26:35.138Z,2.03
2022-08-07T07:28:29.779Z,2.95
2022-08-07T07:31:23.784Z,2.75
2022-08-07T07:33:59.038Z,2.10
2022-08-07T07:36:32.170Z,2.20
2022-08-07T07:39:02.653Z,2.03
2022-08-07T07:41:50.688Z,1.88
2022-08-07T07:44:27.713Z,2.60
2022-08-07T07:47:11.920Z,1.98
2022-08-07T07:50:33.755Z,1.85
2022-08-07T07:52:36.147Z,2.08
2022-08-07T07:55:06.381Z,2.55
2022-08-07T07:57:51.901Z,2.13
2022-08-07T08:00:29.675Z,1.73
2022-08-07T08:03:16.579Z,2.10
2022-08-07T08:05:55.163Z,2.15
2022-08-07T08:08:36.974Z,2.50
2022-08-07T08:11:16.236Z,2.13
2022-08-07T08:13:53.848Z,2.17
2022-08-07T08:16:35.261Z,2.30
2022-08-07T08:19:17.769Z,2.40
2022-08-07T08:22:15.944Z,2.28
2022-08-07T08:25:24.746Z,2.60
2022-08-07T08:28:03.732Z,1.58
2022-08-07T08:33:10.383Z,2.38
2022-08-07T08:35:49.657Z,2.55
2022-08-07T08:38:25.892Z,3.03
2022-08-07T08:41:58.262Z,2.50
2022-08-07T08:44:58.211Z,2.78
2022-08-07T08:47:47.206Z,2.65
2022-08-07T08:50:39.958Z,1.83
2022-08-07T08:53:35.105Z,1.90
2022-08-07T08:56:30.795Z,1.90
2022-08-07T08:59:23.962Z,2.05
2022-08-07T09:02:14.834Z,2.15
2022-08-07T09:05:14.687Z,2.47
2022-08-07T09:08:24.413Z,2.45
2022-08-07T09:11:24.351Z,2.70
2022-08-07T09:14:30.437Z,2.75
2022-08-07T09:17:58.957Z,3.00
2022-08-07T09:21:13.952Z,2.58
2022-08-07T09:24:58.566Z,3.00
2022-08-07T09:27:59.641Z,2.90
2022-08-07T09:33:59.678Z,3.15
2022-08-07T09:36:51.597Z,2.75
2022-08-07T09:39:53.867Z,1.98
2022-08-07T09:42:51.587Z,3.58
2022-08-07T09:47:24.151Z,3.15
2022-08-07T09:50:01.949Z,2.78
2022-08-07T09:52:16.462Z,2.33
2022-08-07T09:55:16.975Z,3.03
2022-08-07T09:58:32.168Z,4.07
2022-08-07T10:01:53.774Z,3.63
2022-08-07T10:04:45.906Z,5.93
2022-08-07T10:07:52.611Z,4.93
2022-08-07T10:11:59.657Z,3.50
2022-08-07T10:14:04.200Z,3.65
2022-08-07T10:16:41.766Z,2.70
2022-08-07T10:19:41.093Z,7.70
2022-08-07T10:22:56.042Z,4.32
2022-08-07T10:26:00.610Z,3.35
2022-08-07T10:29:02.902Z,3.13
2022-08-07T10:32:37.100Z,3.67
2022-08-07T10:38:48.660Z,3.63
2022-08-07T10:41:51.839Z,2.72
2022-08-07T10:44:51.876Z,2.80
2022-08-07T10:48:03.351Z,2.90
2022-08-07T10:50:31.355Z,3.10
2022-08-07T10:53:43.907Z,3.05
2022-08-07T10:56:49.387Z,2.42
2022-08-07T10:59:38.422Z,2.97
2022-08-07T11:02:33.074Z,2.63
2022-08-07T11:05:49.245Z,3.03
2022-08-07T11:08:52.989Z,2.83
2022-08-07T11:11:37.575Z,3.22
2022-08-07T11:14:46.299Z,2.90
2022-08-07T11:17:23.184Z,3.30
2022-08-07T11:20:31.268Z,2.53
2022-08-07T11:23:07.299Z,2.55
2022-08-07T11:25:50.158Z,2.87
2022-08-07T11:28:34.253Z,3.22
2022-08-07T11:31:35.052Z,2.50
2022-08-07T11:34:28.838Z,2.40
2022-08-07T11:38:09.984Z,2.10
2022-08-07T11:40:56.527Z,2.30
2022-08-07T11:43:41.183Z,2.50
2022-08-07T11:47:10.006Z,2.85
2022-08-07T11:50:31.509Z,2.33
2022-08-07T11:53:27.951Z,2.63
2022-08-07T11:56:28.380Z,2.80
2022-08-07T12:00:08.047Z,2.67
2022-08-07T12:02:57.819Z,2.58
2022-08-07T12:05:58.347Z,2.80
2022-08-07T12:08:52.532Z,2.33
2022-08-07T12:11:32.777Z,2.63
2022-08-07T12:14:20.747Z,3.17
2022-08-07T12:17:08.734Z,3.17
2022-08-07T12:20:30.677Z,2.53
2022-08-07T12:23:37.221Z,2.90
2022-08-07T12:26:47.007Z,2.28
2022-08-07T12:29:38.235Z,1.98
2022-08-07T12:32:38.128Z,2.03
2022-08-07T12:35:12.558Z,2.63
2022-08-07T12:38:09.450Z,2.13
2022-08-07T12:40:50.866Z,1.80
2022-08-07T12:44:03.769Z,1.65
2022-08-07T12:46:54.557Z,2.72
2022-08-07T12:50:04.660Z,2.45
2022-08-07T12:53:05.261Z,2.38
2022-08-07T12:56:10.111Z,2.08
2022-08-07T12:58:46.876Z,2.47
2022-08-07T13:01:42.980Z,1.95
2022-08-07T13:05:01.124Z,2.30
2022-08-07T13:08:19.295Z,1.85
2022-08-07T13:11:18.342Z,2.08
2022-08-07T13:14:31.921Z,2.40
2022-08-07T13:17:13.208Z,2.10
2022-08-07T13:20:16.019Z,1.98
2022-08-07T13:22:57.599Z,3.15
2022-08-07T13:25:39.272Z,1.95
2022-08-07T13:28:30.034Z,2.22
2022-08-07T13:31:19.580Z,2.30
2022-08-07T13:34:35.453Z,2.03
2022-08-07T13:37:20.315Z,2.83
2022-08-07T13:40:35.913Z,3.35
2022-08-07T13:43:15.039Z,2.33
2022-08-07T13:46:11.977Z,2.83
2022-08-07T13:48:39.727Z,2.53
2022-08-07T13:51:28.553Z,3.13
2022-08-07T13:56:41.219Z,3.38
2022-08-07T13:59:32.877Z,2.03
2022-08-07T14:02:12.966Z,1.88
2022-08-07T14:04:54.717Z,2.60
2022-08-07T14:07:33.924Z,2.58
2022-08-07T14:10:17.808Z,2.45
2022-08-07T14:13:00.791Z,2.63
2022-08-07T14:15:44.593Z,1.80
2022-08-07T14:18:44.958Z,2.38
2022-08-07T14:22:01.771Z,2.28
2022-08-07T14:24:33.431Z,2.30
2022-08-07T14:28:09.507Z,3.38
2022-08-07T14:30:05.596Z,2.28
2022-08-07T14:32:48.146Z,2.03
2022-08-07T14:35:44.499Z,2.33
2022-08-07T14:38:26.509Z,2.03
2022-08-07T14:41:04.122Z,2.08
2022-08-07T14:43:58.525Z,1.77
2022-08-07T14:46:31.987Z,1.80
2022-08-07T14:49:56.003Z,1.77
2022-08-07T14:52:04.700Z,1.90
2022-08-07T14:54:42.008Z,1.80
2022-08-07T14:57:14.463Z,1.58
2022-08-07T15:00:04.396Z,2.03
2022-08-07T15:02:39.194Z,1.73
2022-08-07T15:07:59.112Z,1.35
2022-08-07T15:13:25.392Z,1.75
2022-08-07T15:16:02.744Z,1.30
2022-08-07T15:18:41.580Z,1.20
2022-08-07T15:21:54.067Z,1.33
2022-08-07T15:27:23.103Z,1.65
2022-08-07T15:30:09.274Z,1.45
2022-08-07T15:33:01.202Z,1.33
2022-08-07T15:35:40.719Z,1.77
2022-08-07T15:38:51.697Z,1.30
2022-08-07T15:44:18.146Z,1.98
2022-08-07T15:46:55.884Z,2.67
2022-08-07T15:50:04.362Z,2.07
2022-08-07T15:52:30.297Z,2.30
2022-08-07T15:55:03.827Z,2.13
2022-08-07T15:57:47.893Z,1.95
2022-08-07T16:00:31.580Z,2.08
2022-08-07T16:03:21.653Z,1.50
2022-08-07T16:06:09.591Z,2.45
2022-08-07T16:08:45.606Z,1.98
2022-08-07T16:11:39.892Z,1.88
2022-08-07T16:14:30.319Z,1.13
2022-08-07T16:18:01.697Z,1.80
2022-08-07T16:22:03.061Z,2.33
2022-08-07T16:24:34.394Z,1.60
2022-08-07T16:27:40.663Z,1.50
2022-08-07T16:30:32.005Z,1.40
2022-08-07T16:34:03.323Z,2.13
2022-08-07T16:36:31.446Z,1.70
2022-08-07T16:42:25.321Z,1.63
2022-08-07T16:45:15.634Z,1.45
2022-08-07T16:48:27.840Z,1.15
2022-08-07T16:51:54.668Z,1.40
2022-08-07T16:55:08.223Z,2.00
2022-08-07T16:58:19.178Z,1.42
2022-08-07T17:01:41.246Z,1.25
2022-08-07T17:04:24.730Z,1.63
2022-08-07T17:07:18.650Z,1.55
2022-08-07T17:10:09.191Z,1.90
2022-08-07T17:13:41.629Z,2.10
2022-08-07T17:16:22.117Z,1.52
2022-08-07T17:18:53.615Z,1.23
2022-08-07T17:21:51.321Z,2.42
2022-08-07T17:24:55.151Z,1.83
2022-08-07T17:27:32.824Z,1.88
2022-08-07T17:30:16.160Z,2.53
2022-08-07T17:34:10.162Z,2.53
2022-08-07T17:36:21.066Z,2.50
2022-08-07T17:39:19.786Z,2.58
2022-08-07T17:42:06.572Z,2.72
2022-08-07T17:44:58.554Z,2.97
2022-08-07T17:47:54.007Z,2.83
2022-08-07T17:50:42.489Z,2.67
2022-08-07T17:54:00.208Z,2.60
2022-08-07T17:56:49.637Z,2.92
2022-08-07T17:59:36.224Z,2.20
2022-08-07T18:02:15.790Z,2.63
2022-08-07T18:05:10.555Z,3.03
2022-08-07T18:08:15.492Z,2.25
2022-08-07T18:12:16.092Z,2.88
2022-08-07T18:14:24.220Z,2.80
2022-08-07T18:17:05.680Z,2.80
2022-08-07T18:30:31.596Z,2.85
2022-08-07T18:33:38.923Z,3.22
2022-08-07T18:36:43.905Z,3.30
2022-08-07T18:40:08.225Z,3.15
2022-08-07T18:42:57.710Z,2.72
2022-08-07T18:46:22.357Z,3.08
2022-08-07T18:50:31.818Z,2.15
2022-08-07T18:52:53.171Z,2.20
2022-08-07T18:55:43.345Z,2.38
2022-08-07T18:58:38.314Z,2.35
2022-08-07T19:02:17.517Z,2.38
2022-08-07T19:04:17.228Z,2.60
2022-08-07T19:07:09.732Z,2.08
2022-08-07T19:10:14.842Z,2.78
2022-08-07T19:13:10.053Z,2.40
2022-08-07T19:16:03.516Z,3.30
2022-08-07T19:19:19.766Z,2.05
2022-08-07T19:22:05.186Z,3.03
2022-08-07T19:24:44.507Z,2.63
2022-08-07T19:28:56.893Z,2.40
2022-08-07T19:30:57.101Z,2.58
2022-08-07T19:33:13.231Z,2.47
2022-08-07T19:35:51.792Z,2.40
2022-08-07T19:38:21.679Z,2.60
2022-08-07T19:40:55.422Z,2.10
2022-08-07T19:43:48.680Z,2.22
2022-08-07T19:46:26.311Z,1.92
2022-08-07T19:49:12.876Z,2.05
2022-08-07T19:51:50.687Z,2.53
2022-08-07T19:54:31.421Z,1.65
2022-08-07T19:58:01.694Z,2.53
2022-08-07T20:00:10.112Z,2.60
2022-08-07T20:02:51.863Z,2.05
2022-08-07T20:05:30.131Z,2.90
2022-08-07T20:08:03.611Z,2.00
2022-08-07T20:10:52.047Z,2.00
2022-08-07T20:13:34.417Z,2.63
2022-08-07T20:16:04.712Z,2.15
2022-08-07T20:18:34.480Z,2.10
2022-08-07T20:21:22.067Z,1.83
2022-08-07T20:24:00.297Z,2.03
2022-08-07T20:26:45.284Z,2.63
2022-08-07T20:29:48.966Z,1.90
2022-08-07T20:32:23.128Z,2.60
2022-08-07T20:34:58.539Z,1.98
2022-08-07T20:37:46.957Z,2.20
2022-08-07T20:40:33.250Z,2.10
2022-08-07T20:43:06.103Z,2.53
2022-08-07T20:46:26.208Z,2.08
2022-08-07T20:48:38.731Z,1.80
2022-08-07T20:51:30.834Z,1.88
2022-08-07T20:54:12.030Z,2.00
2022-08-07T20:56:45.958Z,2.67
2022-08-07T21:00:05.285Z,2.95
2022-08-07T21:02:38.272Z,2.03
2022-08-07T21:05:16.218Z,2.45
2022-08-07T21:07:49.590Z,3.38
2022-08-07T21:10:31.301Z,2.63
2022-08-07T21:13:03.385Z,2.05
2022-08-07T21:15:48.054Z,1.92
2022-08-07T21:18:33.755Z,2.90
2022-08-07T21:21:04.180Z,2.35
2022-08-07T21:24:22.653Z,2.40
2022-08-07T21:27:25.543Z,3.08
2022-08-07T21:30:11.303Z,2.22
2022-08-07T21:32:52.833Z,3.30
2022-08-07T21:36:06.770Z,2.13
2022-08-07T21:38:58.087Z,3.13
2022-08-07T21:46:05.298Z,3.10
2022-08-07T21:48:42.652Z,2.60
2022-08-07T21:51:32.249Z,2.80
2022-08-07T21:57:31.604Z,2.10
2022-08-07T22:00:11.325Z,2.47
2022-08-07T22:03:10.983Z,2.80
2022-08-07T22:05:52.690Z,2.53
2022-08-07T22:08:24.772Z,2.55
2022-08-07T22:11:03.871Z,3.30
2022-08-07T22:16:43.879Z,2.65
2022-08-07T22:19:34.258Z,2.38
2022-08-07T22:22:28.703Z,2.42
2022-08-07T22:25:11.297Z,3.10
2022-08-07T22:28:07.788Z,2.92
2022-08-07T22:31:06.873Z,3.00
2022-08-07T22:33:56.219Z,3.42
2022-08-07T22:36:52.514Z,5.15
2022-08-07T22:40:05.145Z,3.85
2022-08-07T22:42:35.224Z,2.97
2022-08-07T22:45:11.091Z,3.35
2022-08-07T22:48:54.946Z,4.13
2022-08-07T22:52:13.757Z,3.08
2022-08-07T22:55:23.597Z,3.97
2022-08-07T23:34:24.134Z,4.50
2022-08-07T23:35:28.131Z,3.67
2022-08-07T23:38:42.154Z,3.78
2022-08-07T23:41:22.357Z,3.67
2022-08-07T23:44:24.781Z,3.92
2022-08-07T23:47:20.601Z,3.80
2022-08-07T23:50:20.950Z,3.40
2022-08-07T23:53:11.834Z,3.25
2022-08-07T23:56:11.720Z,4.78
